sensor_id;sensor_type;location;lat;lon;timestamp;pressure;altitude;pressure_sealevel;temperature
82297;BMP280;71899;51.992;8.648;2024-03-08T00:00:05;100730.03;;;-0.02
82297;BMP280;71899;51.992;8.648;2024-03-08T00:02:41;100721.34;;;0.09
82297;BMP280;71899;51.992;8.648;2024-03-08T00:05:07;100720.41;;;0.16
82297;BMP280;71899;51.992;8.648;2024-03-08T00:07:39;100712.50;;;0.31
82297;BMP280;71899;51.992;8.648;2024-03-08T00:10:06;100710.06;;;0.19
82297;BMP280;71899;51.992;8.648;2024-03-08T00:12:31;100711.59;;;0.35
82297;BMP280;71899;51.992;8.648;2024-03-08T00:14:56;100710.78;;;0.31
82297;BMP280;71899;51.992;8.648;2024-03-08T00:17:22;100706.63;;;0.21
82297;BMP280;71899;51.992;8.648;2024-03-08T00:19:50;100712.69;;;0.16
82297;BMP280;71899;51.992;8.648;2024-03-08T00:22:16;100717.88;;;0.14
82297;BMP280;71899;51.992;8.648;2024-03-08T00:24:42;100705.75;;;0.22
82297;BMP280;71899;51.992;8.648;2024-03-08T00:27:07;100714.38;;;0.18
82297;BMP280;71899;51.992;8.648;2024-03-08T00:29:34;100704.56;;;0.47
82297;BMP280;71899;51.992;8.648;2024-03-08T00:31:59;100710.41;;;0.57
82297;BMP280;71899;51.992;8.648;2024-03-08T00:34:25;100703.59;;;0.55
82297;BMP280;71899;51.992;8.648;2024-03-08T00:36:50;100701.06;;;0.52
82297;BMP280;71899;51.992;8.648;2024-03-08T00:39:16;100703.16;;;0.24
82297;BMP280;71899;51.992;8.648;2024-03-08T00:41:42;100694.50;;;0.29
82297;BMP280;71899;51.992;8.648;2024-03-08T00:44:09;100695.03;;;0.56
82297;BMP280;71899;51.992;8.648;2024-03-08T00:46:35;100694.91;;;0.62
82297;BMP280;71899;51.992;8.648;2024-03-08T00:49:00;100693.09;;;0.71
82297;BMP280;71899;51.992;8.648;2024-03-08T00:51:26;100694.22;;;0.52
82297;BMP280;71899;51.992;8.648;2024-03-08T00:53:51;100687.84;;;0.16
82297;BMP280;71899;51.992;8.648;2024-03-08T00:56:17;100696.31;;;0.24
82297;BMP280;71899;51.992;8.648;2024-03-08T00:58:42;100685.06;;;0.31
82297;BMP280;71899;51.992;8.648;2024-03-08T01:01:07;100694.31;;;0.43
82297;BMP280;71899;51.992;8.648;2024-03-08T01:03:35;100685.88;;;0.33
82297;BMP280;71899;51.992;8.648;2024-03-08T01:06:00;100684.31;;;0.25
82297;BMP280;71899;51.992;8.648;2024-03-08T01:08:27;100680.78;;;0.29
82297;BMP280;71899;51.992;8.648;2024-03-08T01:10:53;100671.47;;;0.23
82297;BMP280;71899;51.992;8.648;2024-03-08T01:13:18;100669.97;;;0.06
82297;BMP280;71899;51.992;8.648;2024-03-08T01:15:45;100669.13;;;0.07
82297;BMP280;71899;51.992;8.648;2024-03-08T01:18:11;100661.53;;;-0.04
82297;BMP280;71899;51.992;8.648;2024-03-08T01:20:36;100658.78;;;0.10
82297;BMP280;71899;51.992;8.648;2024-03-08T01:23:02;100654.28;;;0.27
82297;BMP280;71899;51.992;8.648;2024-03-08T01:25:27;100655.13;;;0.27
82297;BMP280;71899;51.992;8.648;2024-03-08T01:27:52;100648.47;;;0.14
82297;BMP280;71899;51.992;8.648;2024-03-08T01:30:19;100643.69;;;-0.15
82297;BMP280;71899;51.992;8.648;2024-03-08T01:32:44;100651.31;;;-0.10
82297;BMP280;71899;51.992;8.648;2024-03-08T01:35:09;100640.97;;;-0.04
82297;BMP280;71899;51.992;8.648;2024-03-08T01:37:35;100633.97;;;0.07
82297;BMP280;71899;51.992;8.648;2024-03-08T01:40:01;100628.84;;;0.04
82297;BMP280;71899;51.992;8.648;2024-03-08T01:42:28;100624.41;;;0.17
82297;BMP280;71899;51.992;8.648;2024-03-08T01:44:53;100616.59;;;0.24
82297;BMP280;71899;51.992;8.648;2024-03-08T01:47:19;100615.69;;;0.27
82297;BMP280;71899;51.992;8.648;2024-03-08T01:49:49;100611.56;;;0.17
82297;BMP280;71899;51.992;8.648;2024-03-08T01:52:15;100617.72;;;0.05
82297;BMP280;71899;51.992;8.648;2024-03-08T01:54:41;100606.72;;;-0.05
82297;BMP280;71899;51.992;8.648;2024-03-08T01:57:06;100604.84;;;0.07
82297;BMP280;71899;51.992;8.648;2024-03-08T01:59:32;100599.81;;;-0.01
82297;BMP280;71899;51.992;8.648;2024-03-08T02:02:00;100606.09;;;-0.22
82297;BMP280;71899;51.992;8.648;2024-03-08T02:04:26;100607.91;;;-0.31
82297;BMP280;71899;51.992;8.648;2024-03-08T02:06:52;100605.25;;;-0.24
82297;BMP280;71899;51.992;8.648;2024-03-08T02:09:17;100599.91;;;-0.10
82297;BMP280;71899;51.992;8.648;2024-03-08T02:11:42;100594.56;;;0.07
82297;BMP280;71899;51.992;8.648;2024-03-08T02:14:08;100598.63;;;0.23
82297;BMP280;71899;51.992;8.648;2024-03-08T02:16:34;100597.66;;;0.30
82297;BMP280;71899;51.992;8.648;2024-03-08T02:19:00;100588.97;;;0.37
82297;BMP280;71899;51.992;8.648;2024-03-08T02:21:25;100599.94;;;0.48
82297;BMP280;71899;51.992;8.648;2024-03-08T02:23:50;100584.59;;;0.43
82297;BMP280;71899;51.992;8.648;2024-03-08T02:26:17;100582.97;;;0.36
82297;BMP280;71899;51.992;8.648;2024-03-08T02:28:43;100581.84;;;0.54
82297;BMP280;71899;51.992;8.648;2024-03-08T02:31:09;100581.22;;;0.40
82297;BMP280;71899;51.992;8.648;2024-03-08T02:33:34;100574.34;;;0.42
82297;BMP280;71899;51.992;8.648;2024-03-08T02:36:00;100572.44;;;0.53
82297;BMP280;71899;51.992;8.648;2024-03-08T02:38:25;100569.19;;;0.42
82297;BMP280;71899;51.992;8.648;2024-03-08T02:40:53;100562.19;;;0.50
82297;BMP280;71899;51.992;8.648;2024-03-08T02:43:20;100567.44;;;0.44
82297;BMP280;71899;51.992;8.648;2024-03-08T02:45:47;100565.16;;;0.26
82297;BMP280;71899;51.992;8.648;2024-03-08T02:48:14;100567.97;;;0.11
82297;BMP280;71899;51.992;8.648;2024-03-08T02:50:39;100570.53;;;0.09
82297;BMP280;71899;51.992;8.648;2024-03-08T02:53:05;100564.19;;;0.33
82297;BMP280;71899;51.992;8.648;2024-03-08T02:55:31;100559.47;;;0.59
82297;BMP280;71899;51.992;8.648;2024-03-08T02:57:56;100561.25;;;0.54
82297;BMP280;71899;51.992;8.648;2024-03-08T03:00:23;100553.50;;;0.57
82297;BMP280;71899;51.992;8.648;2024-03-08T03:02:51;100548.09;;;0.72
82297;BMP280;71899;51.992;8.648;2024-03-08T03:05:28;100547.47;;;0.60
82297;BMP280;71899;51.992;8.648;2024-03-08T03:07:55;100547.88;;;0.35
82297;BMP280;71899;51.992;8.648;2024-03-08T03:10:20;100549.00;;;0.18
82297;BMP280;71899;51.992;8.648;2024-03-08T03:12:47;100546.44;;;0.18
82297;BMP280;71899;51.992;8.648;2024-03-08T03:15:14;100535.38;;;0.11
82297;BMP280;71899;51.992;8.648;2024-03-08T03:17:39;100543.81;;;0.21
82297;BMP280;71899;51.992;8.648;2024-03-08T03:20:08;100540.56;;;0.08
82297;BMP280;71899;51.992;8.648;2024-03-08T03:22:39;100533.69;;;0.09
82297;BMP280;71899;51.992;8.648;2024-03-08T03:25:12;100531.34;;;-0.07
82297;BMP280;71899;51.992;8.648;2024-03-08T03:27:37;100522.78;;;-0.06
82297;BMP280;71899;51.992;8.648;2024-03-08T03:30:04;100528.56;;;0.10
82297;BMP280;71899;51.992;8.648;2024-03-08T03:32:49;100528.72;;;-0.01
82297;BMP280;71899;51.992;8.648;2024-03-08T03:35:19;100532.03;;;0.05
82297;BMP280;71899;51.992;8.648;2024-03-08T03:37:46;100522.34;;;0.23
82297;BMP280;71899;51.992;8.648;2024-03-08T03:40:27;100529.41;;;0.11
82297;BMP280;71899;51.992;8.648;2024-03-08T03:42:53;100525.25;;;0.00
82297;BMP280;71899;51.992;8.648;2024-03-08T03:45:18;100520.25;;;-0.10
82297;BMP280;71899;51.992;8.648;2024-03-08T03:47:45;100521.88;;;-0.03
82297;BMP280;71899;51.992;8.648;2024-03-08T03:50:11;100513.47;;;-0.14
82297;BMP280;71899;51.992;8.648;2024-03-08T03:52:36;100511.78;;;-0.15
82297;BMP280;71899;51.992;8.648;2024-03-08T03:55:01;100513.50;;;-0.17
82297;BMP280;71899;51.992;8.648;2024-03-08T03:57:27;100510.97;;;-0.19
82297;BMP280;71899;51.992;8.648;2024-03-08T03:59:52;100507.66;;;-0.27
82297;BMP280;71899;51.992;8.648;2024-03-08T04:02:17;100512.53;;;-0.09
82297;BMP280;71899;51.992;8.648;2024-03-08T04:04:45;100511.78;;;-0.15
82297;BMP280;71899;51.992;8.648;2024-03-08T04:07:10;100508.41;;;-0.20
82297;BMP280;71899;51.992;8.648;2024-03-08T04:09:36;100499.16;;;-0.30
82297;BMP280;71899;51.992;8.648;2024-03-08T04:12:01;100510.88;;;-0.13
82297;BMP280;71899;51.992;8.648;2024-03-08T04:14:27;100497.22;;;-0.16
82297;BMP280;71899;51.992;8.648;2024-03-08T04:16:52;100493.75;;;-0.12
82297;BMP280;71899;51.992;8.648;2024-03-08T04:19:18;100500.59;;;-0.11
82297;BMP280;71899;51.992;8.648;2024-03-08T04:21:44;100491.13;;;-0.09
82297;BMP280;71899;51.992;8.648;2024-03-08T04:24:10;100487.59;;;-0.04
82297;BMP280;71899;51.992;8.648;2024-03-08T04:26:36;100483.38;;;-0.06
82297;BMP280;71899;51.992;8.648;2024-03-08T04:29:03;100477.03;;;0.15
82297;BMP280;71899;51.992;8.648;2024-03-08T04:31:28;100478.16;;;0.00
82297;BMP280;71899;51.992;8.648;2024-03-08T04:33:53;100481.75;;;-0.13
82297;BMP280;71899;51.992;8.648;2024-03-08T04:36:19;100479.25;;;-0.18
82297;BMP280;71899;51.992;8.648;2024-03-08T04:38:45;100473.97;;;-0.07
82297;BMP280;71899;51.992;8.648;2024-03-08T04:41:11;100470.06;;;0.24
82297;BMP280;71899;51.992;8.648;2024-03-08T04:43:36;100458.94;;;0.22
82297;BMP280;71899;51.992;8.648;2024-03-08T04:46:01;100465.78;;;0.23
82297;BMP280;71899;51.992;8.648;2024-03-08T04:48:29;100469.59;;;-0.01
82297;BMP280;71899;51.992;8.648;2024-03-08T04:50:54;100462.16;;;-0.19
82297;BMP280;71899;51.992;8.648;2024-03-08T04:53:21;100463.19;;;-0.29
82297;BMP280;71899;51.992;8.648;2024-03-08T04:55:46;100468.44;;;-0.38
82297;BMP280;71899;51.992;8.648;2024-03-08T04:58:11;100460.63;;;-0.30
82297;BMP280;71899;51.992;8.648;2024-03-08T05:00:36;100463.09;;;-0.23
82297;BMP280;71899;51.992;8.648;2024-03-08T05:03:02;100451.78;;;-0.13
82297;BMP280;71899;51.992;8.648;2024-03-08T05:05:27;100451.00;;;-0.18
82297;BMP280;71899;51.992;8.648;2024-03-08T05:07:54;100454.34;;;-0.13
82297;BMP280;71899;51.992;8.648;2024-03-08T05:10:19;100444.13;;;-0.16
82297;BMP280;71899;51.992;8.648;2024-03-08T05:12:45;100451.78;;;-0.14
82297;BMP280;71899;51.992;8.648;2024-03-08T05:15:10;100445.38;;;-0.41
82297;BMP280;71899;51.992;8.648;2024-03-08T05:17:36;100442.16;;;-0.57
82297;BMP280;71899;51.992;8.648;2024-03-08T05:20:01;100447.22;;;-0.52
82297;BMP280;71899;51.992;8.648;2024-03-08T05:22:27;100442.03;;;-0.47
82297;BMP280;71899;51.992;8.648;2024-03-08T05:24:53;100450.50;;;-0.42
82297;BMP280;71899;51.992;8.648;2024-03-08T05:27:18;100446.25;;;-0.43
82297;BMP280;71899;51.992;8.648;2024-03-08T05:29:43;100438.38;;;-0.31
82297;BMP280;71899;51.992;8.648;2024-03-08T05:32:08;100442.47;;;-0.20
82297;BMP280;71899;51.992;8.648;2024-03-08T05:34:35;100444.13;;;-0.17
82297;BMP280;71899;51.992;8.648;2024-03-08T05:37:00;100446.53;;;-0.07
82297;BMP280;71899;51.992;8.648;2024-03-08T05:39:26;100433.63;;;-0.01
82297;BMP280;71899;51.992;8.648;2024-03-08T05:41:51;100435.13;;;0.11
82297;BMP280;71899;51.992;8.648;2024-03-08T05:44:17;100433.50;;;0.07
82297;BMP280;71899;51.992;8.648;2024-03-08T05:46:43;100434.31;;;0.08
82297;BMP280;71899;51.992;8.648;2024-03-08T05:49:09;100432.47;;;0.16
82297;BMP280;71899;51.992;8.648;2024-03-08T05:51:36;100426.59;;;0.09
82297;BMP280;71899;51.992;8.648;2024-03-08T05:54:02;100431.06;;;-0.02
82297;BMP280;71899;51.992;8.648;2024-03-08T05:56:31;100424.22;;;-0.03
82297;BMP280;71899;51.992;8.648;2024-03-08T05:58:57;100427.56;;;0.04
82297;BMP280;71899;51.992;8.648;2024-03-08T06:01:26;100424.75;;;0.17
82297;BMP280;71899;51.992;8.648;2024-03-08T06:03:55;100418.41;;;0.36
82297;BMP280;71899;51.992;8.648;2024-03-08T06:06:24;100424.09;;;0.54
82297;BMP280;71899;51.992;8.648;2024-03-08T06:08:50;100434.44;;;0.50
82297;BMP280;71899;51.992;8.648;2024-03-08T06:11:16;100434.56;;;0.43
82297;BMP280;71899;51.992;8.648;2024-03-08T06:13:46;100415.22;;;0.24
82297;BMP280;71899;51.992;8.648;2024-03-08T06:16:11;100428.22;;;0.64
82297;BMP280;71899;51.992;8.648;2024-03-08T06:18:37;100412.78;;;0.64
82297;BMP280;71899;51.992;8.648;2024-03-08T06:21:06;100425.31;;;0.79
82297;BMP280;71899;51.992;8.648;2024-03-08T06:23:34;100403.72;;;0.86
82297;BMP280;71899;51.992;8.648;2024-03-08T06:26:04;100419.44;;;1.15
82297;BMP280;71899;51.992;8.648;2024-03-08T06:28:29;100415.78;;;1.25
82297;BMP280;71899;51.992;8.648;2024-03-08T06:30:54;100414.75;;;1.34
82297;BMP280;71899;51.992;8.648;2024-03-08T06:33:21;100399.22;;;1.37
82297;BMP280;71899;51.992;8.648;2024-03-08T06:35:46;100414.16;;;1.60
82297;BMP280;71899;51.992;8.648;2024-03-08T06:38:11;100400.44;;;1.59
82297;BMP280;71899;51.992;8.648;2024-03-08T06:40:37;100417.03;;;1.83
82297;BMP280;71899;51.992;8.648;2024-03-08T06:43:02;100413.84;;;1.73
82297;BMP280;71899;51.992;8.648;2024-03-08T06:45:31;100401.56;;;1.84
82297;BMP280;71899;51.992;8.648;2024-03-08T06:47:56;100410.69;;;1.61
82297;BMP280;71899;51.992;8.648;2024-03-08T06:50:22;100407.53;;;1.49
82297;BMP280;71899;51.992;8.648;2024-03-08T06:52:48;100407.56;;;1.48
82297;BMP280;71899;51.992;8.648;2024-03-08T06:55:19;100411.03;;;1.82
82297;BMP280;71899;51.992;8.648;2024-03-08T06:57:44;100403.38;;;2.15
82297;BMP280;71899;51.992;8.648;2024-03-08T07:00:10;100407.84;;;2.42
82297;BMP280;71899;51.992;8.648;2024-03-08T07:02:37;100410.81;;;2.59
82297;BMP280;71899;51.992;8.648;2024-03-08T07:05:05;100402.31;;;2.86
82297;BMP280;71899;51.992;8.648;2024-03-08T07:07:30;100407.34;;;3.20
82297;BMP280;71899;51.992;8.648;2024-03-08T07:09:57;100410.81;;;3.19
82297;BMP280;71899;51.992;8.648;2024-03-08T07:12:22;100392.97;;;3.12
82297;BMP280;71899;51.992;8.648;2024-03-08T07:14:48;100407.28;;;3.23
82297;BMP280;71899;51.992;8.648;2024-03-08T07:17:14;100416.34;;;3.36
82297;BMP280;71899;51.992;8.648;2024-03-08T07:19:39;100406.41;;;3.52
82297;BMP280;71899;51.992;8.648;2024-03-08T07:22:05;100427.59;;;3.89
82297;BMP280;71899;51.992;8.648;2024-03-08T07:24:37;100403.81;;;4.06
82297;BMP280;71899;51.992;8.648;2024-03-08T07:27:04;100404.97;;;4.47
82297;BMP280;71899;51.992;8.648;2024-03-08T07:29:31;100395.84;;;4.62
82297;BMP280;71899;51.992;8.648;2024-03-08T07:31:56;100404.06;;;4.73
82297;BMP280;71899;51.992;8.648;2024-03-08T07:34:37;100397.44;;;4.41
82297;BMP280;71899;51.992;8.648;2024-03-08T07:37:02;100398.31;;;4.65
82297;BMP280;71899;51.992;8.648;2024-03-08T07:39:29;100398.72;;;5.00
82297;BMP280;71899;51.992;8.648;2024-03-08T07:41:54;100392.25;;;5.12
82297;BMP280;71899;51.992;8.648;2024-03-08T07:44:20;100413.47;;;5.45
82297;BMP280;71899;51.992;8.648;2024-03-08T07:46:45;100405.00;;;5.40
82297;BMP280;71899;51.992;8.648;2024-03-08T07:49:10;100385.94;;;5.19
82297;BMP280;71899;51.992;8.648;2024-03-08T07:51:37;100388.81;;;5.12
82297;BMP280;71899;51.992;8.648;2024-03-08T07:54:03;100392.50;;;5.06
82297;BMP280;71899;51.992;8.648;2024-03-08T07:56:30;100382.25;;;5.25
82297;BMP280;71899;51.992;8.648;2024-03-08T07:58:55;100389.31;;;5.66
82297;BMP280;71899;51.992;8.648;2024-03-08T08:01:21;100389.41;;;5.85
82297;BMP280;71899;51.992;8.648;2024-03-08T08:03:46;100402.56;;;6.02
82297;BMP280;71899;51.992;8.648;2024-03-08T08:06:15;100393.50;;;5.69
82297;BMP280;71899;51.992;8.648;2024-03-08T08:08:44;100387.31;;;5.51
82297;BMP280;71899;51.992;8.648;2024-03-08T08:11:10;100383.53;;;5.36
82297;BMP280;71899;51.992;8.648;2024-03-08T08:13:36;100389.22;;;5.46
82297;BMP280;71899;51.992;8.648;2024-03-08T08:16:03;100376.38;;;5.43
82297;BMP280;71899;51.992;8.648;2024-03-08T08:18:29;100383.38;;;5.84
82297;BMP280;71899;51.992;8.648;2024-03-08T08:20:55;100379.81;;;6.09
82297;BMP280;71899;51.992;8.648;2024-03-08T08:23:21;100395.28;;;5.90
82297;BMP280;71899;51.992;8.648;2024-03-08T08:25:47;100367.94;;;5.81
82297;BMP280;71899;51.992;8.648;2024-03-08T08:28:16;100372.28;;;5.81
82297;BMP280;71899;51.992;8.648;2024-03-08T08:30:45;100367.16;;;6.01
82297;BMP280;71899;51.992;8.648;2024-03-08T08:33:10;100370.00;;;6.15
82297;BMP280;71899;51.992;8.648;2024-03-08T08:35:38;100368.88;;;5.79
82297;BMP280;71899;51.992;8.648;2024-03-08T08:38:06;100376.56;;;5.60
82297;BMP280;71899;51.992;8.648;2024-03-08T08:40:34;100374.34;;;5.94
82297;BMP280;71899;51.992;8.648;2024-03-08T08:43:01;100359.63;;;5.73
82297;BMP280;71899;51.992;8.648;2024-03-08T08:45:29;100346.34;;;6.03
82297;BMP280;71899;51.992;8.648;2024-03-08T08:47:55;100340.28;;;6.02
82297;BMP280;71899;51.992;8.648;2024-03-08T08:50:20;100359.75;;;5.92
82297;BMP280;71899;51.992;8.648;2024-03-08T08:52:48;100335.34;;;5.96
82297;BMP280;71899;51.992;8.648;2024-03-08T08:55:14;100335.50;;;6.13
82297;BMP280;71899;51.992;8.648;2024-03-08T08:57:40;100343.28;;;6.33
82297;BMP280;71899;51.992;8.648;2024-03-08T09:00:06;100334.13;;;6.05
82297;BMP280;71899;51.992;8.648;2024-03-08T09:02:33;100324.47;;;6.08
82297;BMP280;71899;51.992;8.648;2024-03-08T09:04:59;100324.47;;;5.88
82297;BMP280;71899;51.992;8.648;2024-03-08T09:07:26;100326.84;;;5.71
82297;BMP280;71899;51.992;8.648;2024-03-08T09:09:53;100331.72;;;6.00
82297;BMP280;71899;51.992;8.648;2024-03-08T09:12:22;100315.72;;;6.49
82297;BMP280;71899;51.992;8.648;2024-03-08T09:14:47;100316.38;;;6.55
82297;BMP280;71899;51.992;8.648;2024-03-08T09:17:13;100313.34;;;6.45
82297;BMP280;71899;51.992;8.648;2024-03-08T09:19:43;100320.19;;;6.66
82297;BMP280;71899;51.992;8.648;2024-03-08T09:22:08;100310.53;;;6.68
82297;BMP280;71899;51.992;8.648;2024-03-08T09:24:33;100312.25;;;6.69
82297;BMP280;71899;51.992;8.648;2024-03-08T09:26:59;100299.94;;;6.54
82297;BMP280;71899;51.992;8.648;2024-03-08T09:29:24;100304.72;;;6.82
82297;BMP280;71899;51.992;8.648;2024-03-08T09:31:49;100301.22;;;6.83
82297;BMP280;71899;51.992;8.648;2024-03-08T09:34:15;100277.75;;;7.03
82297;BMP280;71899;51.992;8.648;2024-03-08T09:36:40;100279.38;;;7.06
82297;BMP280;71899;51.992;8.648;2024-03-08T09:39:07;100267.06;;;7.09
82297;BMP280;71899;51.992;8.648;2024-03-08T09:41:33;100261.22;;;7.23
82297;BMP280;71899;51.992;8.648;2024-03-08T09:43:59;100260.31;;;7.41
82297;BMP280;71899;51.992;8.648;2024-03-08T09:46:25;100253.19;;;7.27
82297;BMP280;71899;51.992;8.648;2024-03-08T09:48:52;100246.47;;;7.58
82297;BMP280;71899;51.992;8.648;2024-03-08T09:51:21;100252.22;;;7.81
82297;BMP280;71899;51.992;8.648;2024-03-08T09:53:50;100230.56;;;7.81
82297;BMP280;71899;51.992;8.648;2024-03-08T09:56:15;100232.59;;;8.24
82297;BMP280;71899;51.992;8.648;2024-03-08T09:58:41;100232.88;;;8.20
82297;BMP280;71899;51.992;8.648;2024-03-08T10:01:24;100228.97;;;8.28
82297;BMP280;71899;51.992;8.648;2024-03-08T10:03:52;100212.44;;;8.12
82297;BMP280;71899;51.992;8.648;2024-03-08T10:06:22;100217.22;;;8.53
82297;BMP280;71899;51.992;8.648;2024-03-08T10:08:48;100208.69;;;8.66
82297;BMP280;71899;51.992;8.648;2024-03-08T10:11:13;100202.19;;;8.58
82297;BMP280;71899;51.992;8.648;2024-03-08T10:13:39;100215.06;;;8.45
82297;BMP280;71899;51.992;8.648;2024-03-08T10:16:06;100211.94;;;8.85
82297;BMP280;71899;51.992;8.648;2024-03-08T10:18:32;100199.66;;;9.03
82297;BMP280;71899;51.992;8.648;2024-03-08T10:21:06;100205.28;;;9.11
82297;BMP280;71899;51.992;8.648;2024-03-08T10:23:32;100201.75;;;9.12
82297;BMP280;71899;51.992;8.648;2024-03-08T10:26:10;100187.38;;;8.89
82297;BMP280;71899;51.992;8.648;2024-03-08T10:28:35;100193.03;;;8.82
82297;BMP280;71899;51.992;8.648;2024-03-08T10:31:00;100190.28;;;8.69
82297;BMP280;71899;51.992;8.648;2024-03-08T10:33:26;100190.25;;;8.54
82297;BMP280;71899;51.992;8.648;2024-03-08T10:35:53;100183.28;;;8.54
82297;BMP280;71899;51.992;8.648;2024-03-08T10:38:20;100182.03;;;8.61
82297;BMP280;71899;51.992;8.648;2024-03-08T10:40:47;100173.28;;;8.31
82297;BMP280;71899;51.992;8.648;2024-03-08T10:43:24;100183.78;;;8.61
82297;BMP280;71899;51.992;8.648;2024-03-08T10:46:20;100159.75;;;8.71
82297;BMP280;71899;51.992;8.648;2024-03-08T10:48:49;100169.38;;;8.85
82297;BMP280;71899;51.992;8.648;2024-03-08T10:51:19;100174.72;;;9.13
82297;BMP280;71899;51.992;8.648;2024-03-08T10:53:46;100171.13;;;9.16
82297;BMP280;71899;51.992;8.648;2024-03-08T10:56:12;100172.25;;;9.26
82297;BMP280;71899;51.992;8.648;2024-03-08T10:58:40;100172.03;;;9.15
82297;BMP280;71899;51.992;8.648;2024-03-08T11:01:06;100148.19;;;9.21
82297;BMP280;71899;51.992;8.648;2024-03-08T11:06:08;100142.03;;;9.52
82297;BMP280;71899;51.992;8.648;2024-03-08T11:08:36;100147.94;;;9.83
82297;BMP280;71899;51.992;8.648;2024-03-08T11:11:01;100151.88;;;9.76
82297;BMP280;71899;51.992;8.648;2024-03-08T11:13:42;100139.00;;;9.87
82297;BMP280;71899;51.992;8.648;2024-03-08T11:18:59;100128.38;;;9.90
82297;BMP280;71899;51.992;8.648;2024-03-08T11:21:30;100127.13;;;9.96
82297;BMP280;71899;51.992;8.648;2024-03-08T11:24:00;100135.28;;;10.06
82297;BMP280;71899;51.992;8.648;2024-03-08T11:26:25;100129.41;;;9.88
82297;BMP280;71899;51.992;8.648;2024-03-08T11:28:51;100130.06;;;9.91
82297;BMP280;71899;51.992;8.648;2024-03-08T11:33:47;100125.09;;;9.87
82297;BMP280;71899;51.992;8.648;2024-03-08T11:36:20;100120.63;;;10.17
82297;BMP280;71899;51.992;8.648;2024-03-08T11:38:47;100112.44;;;9.95
82297;BMP280;71899;51.992;8.648;2024-03-08T11:41:22;100103.63;;;9.96
82297;BMP280;71899;51.992;8.648;2024-03-08T11:43:49;100112.25;;;9.84
82297;BMP280;71899;51.992;8.648;2024-03-08T11:46:16;100100.03;;;9.84
82297;BMP280;71899;51.992;8.648;2024-03-08T11:48:43;100093.56;;;10.04
82297;BMP280;71899;51.992;8.648;2024-03-08T11:51:11;100087.09;;;10.10
82297;BMP280;71899;51.992;8.648;2024-03-08T11:53:37;100083.84;;;10.34
82297;BMP280;71899;51.992;8.648;2024-03-08T11:56:09;100075.66;;;10.26
82297;BMP280;71899;51.992;8.648;2024-03-08T11:58:35;100078.25;;;10.12
82297;BMP280;71899;51.992;8.648;2024-03-08T12:01:04;100078.75;;;9.90
82297;BMP280;71899;51.992;8.648;2024-03-08T12:03:31;100070.69;;;10.08
82297;BMP280;71899;51.992;8.648;2024-03-08T12:06:00;100067.13;;;10.37
82297;BMP280;71899;51.992;8.648;2024-03-08T12:08:25;100056.53;;;10.26
82297;BMP280;71899;51.992;8.648;2024-03-08T12:10:53;100047.78;;;10.39
82297;BMP280;71899;51.992;8.648;2024-03-08T12:13:25;100047.16;;;10.75
82297;BMP280;71899;51.992;8.648;2024-03-08T12:15:55;100051.03;;;10.70
82297;BMP280;71899;51.992;8.648;2024-03-08T12:18:21;100037.91;;;10.44
82297;BMP280;71899;51.992;8.648;2024-03-08T12:20:47;100033.72;;;10.28
82297;BMP280;71899;51.992;8.648;2024-03-08T12:23:15;100024.53;;;10.22
82297;BMP280;71899;51.992;8.648;2024-03-08T12:25:41;100027.88;;;10.24
82297;BMP280;71899;51.992;8.648;2024-03-08T12:28:08;100023.13;;;10.17
82297;BMP280;71899;51.992;8.648;2024-03-08T12:30:48;100017.00;;;10.57
82297;BMP280;71899;51.992;8.648;2024-03-08T12:33:14;100002.38;;;10.67
82297;BMP280;71899;51.992;8.648;2024-03-08T12:35:39;99997.91;;;10.82
82297;BMP280;71899;51.992;8.648;2024-03-08T12:38:06;100002.66;;;10.50
82297;BMP280;71899;51.992;8.648;2024-03-08T12:40:33;99996.22;;;10.29
82297;BMP280;71899;51.992;8.648;2024-03-08T12:43:01;99989.88;;;10.33
82297;BMP280;71899;51.992;8.648;2024-03-08T12:45:27;99986.69;;;10.28
82297;BMP280;71899;51.992;8.648;2024-03-08T12:47:53;99982.47;;;10.13
82297;BMP280;71899;51.992;8.648;2024-03-08T12:50:22;99977.00;;;10.30
82297;BMP280;71899;51.992;8.648;2024-03-08T12:52:48;99975.81;;;10.21
82297;BMP280;71899;51.992;8.648;2024-03-08T12:55:14;99968.97;;;10.33
82297;BMP280;71899;51.992;8.648;2024-03-08T12:57:41;99967.81;;;10.76
82297;BMP280;71899;51.992;8.648;2024-03-08T13:00:07;99963.25;;;10.53
82297;BMP280;71899;51.992;8.648;2024-03-08T13:02:38;99963.13;;;10.42
82297;BMP280;71899;51.992;8.648;2024-03-08T13:05:04;99955.34;;;10.28
82297;BMP280;71899;51.992;8.648;2024-03-08T13:07:31;99949.28;;;10.27
82297;BMP280;71899;51.992;8.648;2024-03-08T13:09:57;99955.91;;;10.45
82297;BMP280;71899;51.992;8.648;2024-03-08T13:12:25;99950.25;;;10.26
82297;BMP280;71899;51.992;8.648;2024-03-08T13:14:50;99937.84;;;10.42
82297;BMP280;71899;51.992;8.648;2024-03-08T13:17:16;99936.34;;;10.38
82297;BMP280;71899;51.992;8.648;2024-03-08T13:19:44;99925.09;;;10.51
82297;BMP280;71899;51.992;8.648;2024-03-08T13:22:09;99927.53;;;10.14
82297;BMP280;71899;51.992;8.648;2024-03-08T13:24:42;99926.44;;;10.43
82297;BMP280;71899;51.992;8.648;2024-03-08T13:27:08;99907.03;;;10.48
82297;BMP280;71899;51.992;8.648;2024-03-08T13:29:48;99913.84;;;10.63
82297;BMP280;71899;51.992;8.648;2024-03-08T13:32:16;99924.56;;;10.45
82297;BMP280;71899;51.992;8.648;2024-03-08T13:34:45;99916.44;;;10.75
82297;BMP280;71899;51.992;8.648;2024-03-08T13:37:10;99910.69;;;10.58
82297;BMP280;71899;51.992;8.648;2024-03-08T13:39:37;99909.22;;;10.91
82297;BMP280;71899;51.992;8.648;2024-03-08T13:42:23;99902.97;;;10.94
82297;BMP280;71899;51.992;8.648;2024-03-08T13:44:51;99902.59;;;11.24
82297;BMP280;71899;51.992;8.648;2024-03-08T13:47:17;99898.75;;;10.91
82297;BMP280;71899;51.992;8.648;2024-03-08T13:49:44;99878.25;;;10.60
82297;BMP280;71899;51.992;8.648;2024-03-08T13:52:16;99873.56;;;10.78
82297;BMP280;71899;51.992;8.648;2024-03-08T13:54:41;99857.25;;;10.87
82297;BMP280;71899;51.992;8.648;2024-03-08T13:57:07;99856.72;;;10.94
82297;BMP280;71899;51.992;8.648;2024-03-08T13:59:35;99841.69;;;10.73
82297;BMP280;71899;51.992;8.648;2024-03-08T14:02:02;99842.09;;;10.54
82297;BMP280;71899;51.992;8.648;2024-03-08T14:04:31;99855.06;;;10.43
82297;BMP280;71899;51.992;8.648;2024-03-08T14:06:57;99845.53;;;10.80
82297;BMP280;71899;51.992;8.648;2024-03-08T14:09:26;99826.50;;;10.90
82297;BMP280;71899;51.992;8.648;2024-03-08T14:11:54;99823.75;;;11.05